sensor_id;sensor_type;location;lat;lon;timestamp;temperature;humidity
26505;DHT22;19493;48.042;7.584;2023-07-08T00:01:36;19.40;99.90
26505;DHT22;19493;48.042;7.584;2023-07-08T00:04:01;19.40;99.90
26505;DHT22;19493;48.042;7.584;2023-07-08T00:06:29;19.40;99.90
26505;DHT22;19493;48.042;7.584;2023-07-08T00:08:54;19.50;99.90
26505;DHT22;19493;48.042;7.584;2023-07-08T00:11:21;19.60;99.90
26505;DHT22;19493;48.042;7.584;2023-07-08T00:13:47;19.60;99.90
26505;DHT22;19493;48.042;7.584;2023-07-08T00:16:17;19.60;99.90
26505;DHT22;19493;48.042;7.584;2023-07-08T00:18:44;19.50;99.90
26505;DHT22;19493;48.042;7.584;2023-07-08T00:21:15;19.50;99.90
26505;DHT22;19493;48.042;7.584;2023-07-08T00:23:45;19.40;99.90
26505;DHT22;19493;48.042;7.584;2023-07-08T00:26:27;19.30;99.90
26505;DHT22;19493;48.042;7.584;2023-07-08T00:28:54;19.30;99.90
26505;DHT22;19493;48.042;7.584;2023-07-08T00:31:20;19.30;99.90
26505;DHT22;19493;48.042;7.584;2023-07-08T00:33:51;19.20;99.90
26505;DHT22;19493;48.042;7.584;2023-07-08T00:36:18;19.20;99.90
26505;DHT22;19493;48.042;7.584;2023-07-08T00:38:43;19.10;99.90
26505;DHT22;19493;48.042;7.584;2023-07-08T00:41:37;19.00;99.90
26505;DHT22;19493;48.042;7.584;2023-07-08T00:44:00;19.00;99.90
26505;DHT22;19493;48.042;7.584;2023-07-08T00:51:40;18.90;99.90
26505;DHT22;19493;48.042;7.584;2023-07-08T00:54:18;18.80;99.90
26505;DHT22;19493;48.042;7.584;2023-07-08T00:56:47;18.80;99.90
26505;DHT22;19493;48.042;7.584;2023-07-08T00:59:26;18.70;99.90
26505;DHT22;19493;48.042;7.584;2023-07-08T01:01:54;18.60;99.90
26505;DHT22;19493;48.042;7.584;2023-07-08T01:04:24;18.70;99.90
26505;DHT22;19493;48.042;7.584;2023-07-08T01:06:53;18.60;99.90
26505;DHT22;19493;48.042;7.584;2023-07-08T01:09:28;18.60;99.90
26505;DHT22;19493;48.042;7.584;2023-07-08T01:11:58;18.50;99.90
26505;DHT22;19493;48.042;7.584;2023-07-08T01:14:26;18.50;99.90
26505;DHT22;19493;48.042;7.584;2023-07-08T01:16:52;18.50;99.90
26505;DHT22;19493;48.042;7.584;2023-07-08T01:19:21;18.40;99.90
26505;DHT22;19493;48.042;7.584;2023-07-08T01:24:24;18.40;99.90
26505;DHT22;19493;48.042;7.584;2023-07-08T01:26:50;18.40;99.90
26505;DHT22;19493;48.042;7.584;2023-07-08T01:29:16;18.50;99.90
26505;DHT22;19493;48.042;7.584;2023-07-08T01:31:41;18.50;99.90
26505;DHT22;19493;48.042;7.584;2023-07-08T01:34:17;18.40;99.90
26505;DHT22;19493;48.042;7.584;2023-07-08T01:36:49;18.40;99.90
26505;DHT22;19493;48.042;7.584;2023-07-08T01:39:19;18.40;99.90
26505;DHT22;19493;48.042;7.584;2023-07-08T01:41:45;18.30;99.90
26505;DHT22;19493;48.042;7.584;2023-07-08T01:44:37;18.40;99.90
26505;DHT22;19493;48.042;7.584;2023-07-08T01:47:14;18.40;99.90
26505;DHT22;19493;48.042;7.584;2023-07-08T01:49:43;18.30;99.90
26505;DHT22;19493;48.042;7.584;2023-07-08T01:52:11;18.30;99.90
26505;DHT22;19493;48.042;7.584;2023-07-08T01:54:37;18.50;99.90
26505;DHT22;19493;48.042;7.584;2023-07-08T01:57:03;18.50;99.90
26505;DHT22;19493;48.042;7.584;2023-07-08T01:59:29;18.50;99.90
26505;DHT22;19493;48.042;7.584;2023-07-08T02:01:55;18.60;99.90
26505;DHT22;19493;48.042;7.584;2023-07-08T02:04:21;18.60;99.90
26505;DHT22;19493;48.042;7.584;2023-07-08T02:06:55;18.70;99.90
26505;DHT22;19493;48.042;7.584;2023-07-08T02:09:21;18.70;99.90
26505;DHT22;19493;48.042;7.584;2023-07-08T02:11:46;18.70;99.90
26505;DHT22;19493;48.042;7.584;2023-07-08T02:14:12;18.70;99.90
26505;DHT22;19493;48.042;7.584;2023-07-08T02:16:37;18.80;99.90
26505;DHT22;19493;48.042;7.584;2023-07-08T02:19:03;18.80;99.90
26505;DHT22;19493;48.042;7.584;2023-07-08T02:21:28;18.90;99.90
26505;DHT22;19493;48.042;7.584;2023-07-08T02:23:56;19.10;99.90
26505;DHT22;19493;48.042;7.584;2023-07-08T02:26:23;19.20;99.90
26505;DHT22;19493;48.042;7.584;2023-07-08T02:28:48;19.40;99.90
26505;DHT22;19493;48.042;7.584;2023-07-08T02:31:14;19.60;99.90
26505;DHT22;19493;48.042;7.584;2023-07-08T02:33:40;19.70;99.90
26505;DHT22;19493;48.042;7.584;2023-07-08T02:36:05;19.80;99.90
26505;DHT22;19493;48.042;7.584;2023-07-08T02:38:31;19.90;99.90
26505;DHT22;19493;48.042;7.584;2023-07-08T02:40:57;20.00;99.90
26505;DHT22;19493;48.042;7.584;2023-07-08T02:43:23;20.10;99.90
26505;DHT22;19493;48.042;7.584;2023-07-08T02:45:50;20.20;99.90
26505;DHT22;19493;48.042;7.584;2023-07-08T02:48:18;20.30;99.90
26505;DHT22;19493;48.042;7.584;2023-07-08T02:50:43;20.40;99.90
26505;DHT22;19493;48.042;7.584;2023-07-08T02:53:09;20.40;99.90
26505;DHT22;19493;48.042;7.584;2023-07-08T02:55:34;20.40;99.90
26505;DHT22;19493;48.042;7.584;2023-07-08T02:58:00;20.40;99.90
26505;DHT22;19493;48.042;7.584;2023-07-08T03:00:25;20.40;99.90
26505;DHT22;19493;48.042;7.584;2023-07-08T03:02:51;20.50;99.90
26505;DHT22;19493;48.042;7.584;2023-07-08T03:05:17;20.50;99.90
26505;DHT22;19493;48.042;7.584;2023-07-08T03:07:42;20.50;99.90
26505;DHT22;19493;48.042;7.584;2023-07-08T03:10:08;20.60;99.90
26505;DHT22;19493;48.042;7.584;2023-07-08T03:12:34;20.60;99.90
26505;DHT22;19493;48.042;7.584;2023-07-08T03:15:00;20.80;99.90
26505;DHT22;19493;48.042;7.584;2023-07-08T03:17:25;21.00;99.90
26505;DHT22;19493;48.042;7.584;2023-07-08T03:19:51;21.20;99.90
26505;DHT22;19493;48.042;7.584;2023-07-08T03:22:16;21.20;99.90
26505;DHT22;19493;48.042;7.584;2023-07-08T03:24:42;21.30;99.90
26505;DHT22;19493;48.042;7.584;2023-07-08T03:27:12;21.30;99.90
26505;DHT22;19493;48.042;7.584;2023-07-08T03:29:38;21.30;99.90
26505;DHT22;19493;48.042;7.584;2023-07-08T03:32:04;21.30;99.90
26505;DHT22;19493;48.042;7.584;2023-07-08T03:34:29;21.40;99.90
26505;DHT22;19493;48.042;7.584;2023-07-08T03:36:55;21.20;99.90
26505;DHT22;19493;48.042;7.584;2023-07-08T03:39:22;21.00;99.90
26505;DHT22;19493;48.042;7.584;2023-07-08T03:41:50;20.90;99.90
26505;DHT22;19493;48.042;7.584;2023-07-08T03:44:15;20.90;99.90
26505;DHT22;19493;48.042;7.584;2023-07-08T03:46:42;21.00;99.90
26505;DHT22;19493;48.042;7.584;2023-07-08T03:49:09;21.20;99.90
26505;DHT22;19493;48.042;7.584;2023-07-08T03:51:37;21.30;99.90
26505;DHT22;19493;48.042;7.584;2023-07-08T03:54:04;21.30;99.90
26505;DHT22;19493;48.042;7.584;2023-07-08T03:56:30;21.20;99.90
26505;DHT22;19493;48.042;7.584;2023-07-08T03:58:55;21.20;99.90
26505;DHT22;19493;48.042;7.584;2023-07-08T04:01:24;21.10;99.90
26505;DHT22;19493;48.042;7.584;2023-07-08T04:03:54;21.10;99.90
26505;DHT22;19493;48.042;7.584;2023-07-08T04:06:21;21.10;99.90
26505;DHT22;19493;48.042;7.584;2023-07-08T04:08:47;21.00;99.90
26505;DHT22;19493;48.042;7.584;2023-07-08T04:11:15;20.40;99.90
26505;DHT22;19493;48.042;7.584;2023-07-08T04:13:41;20.00;99.90
26505;DHT22;19493;48.042;7.584;2023-07-08T04:16:07;19.70;99.90
26505;DHT22;19493;48.042;7.584;2023-07-08T04:18:39;19.70;99.90
26505;DHT22;19493;48.042;7.584;2023-07-08T04:21:05;19.80;99.90
26505;DHT22;19493;48.042;7.584;2023-07-08T04:23:31;19.80;99.90
26505;DHT22;19493;48.042;7.584;2023-07-08T04:25:57;19.70;99.90
26505;DHT22;19493;48.042;7.584;2023-07-08T04:28:23;19.40;99.90
26505;DHT22;19493;48.042;7.584;2023-07-08T04:30:49;19.20;99.90
26505;DHT22;19493;48.042;7.584;2023-07-08T04:33:15;19.00;99.90
26505;DHT22;19493;48.042;7.584;2023-07-08T04:35:41;18.80;99.90
26505;DHT22;19493;48.042;7.584;2023-07-08T04:38:18;18.70;99.90
26505;DHT22;19493;48.042;7.584;2023-07-08T04:40:44;18.60;99.90
26505;DHT22;19493;48.042;7.584;2023-07-08T04:43:10;18.40;99.90
26505;DHT22;19493;48.042;7.584;2023-07-08T04:45:37;18.30;99.90
26505;DHT22;19493;48.042;7.584;2023-07-08T04:48:03;18.30;99.90
26505;DHT22;19493;48.042;7.584;2023-07-08T04:50:44;18.30;99.90
26505;DHT22;19493;48.042;7.584;2023-07-08T04:53:10;18.30;99.90
26505;DHT22;19493;48.042;7.584;2023-07-08T04:55:46;18.30;99.90
26505;DHT22;19493;48.042;7.584;2023-07-08T04:58:12;18.30;99.90
26505;DHT22;19493;48.042;7.584;2023-07-08T05:00:37;18.30;99.90
26505;DHT22;19493;48.042;7.584;2023-07-08T05:03:03;18.20;99.90
26505;DHT22;19493;48.042;7.584;2023-07-08T05:05:28;18.20;99.90
26505;DHT22;19493;48.042;7.584;2023-07-08T05:07:54;18.20;99.90
26505;DHT22;19493;48.042;7.584;2023-07-08T05:10:20;18.20;99.90
26505;DHT22;19493;48.042;7.584;2023-07-08T05:12:46;18.10;99.90
26505;DHT22;19493;48.042;7.584;2023-07-08T05:15:13;18.10;99.90
26505;DHT22;19493;48.042;7.584;2023-07-08T05:17:39;18.10;99.90
26505;DHT22;19493;48.042;7.584;2023-07-08T05:20:07;18.00;99.90
26505;DHT22;19493;48.042;7.584;2023-07-08T05:22:33;18.00;99.90
26505;DHT22;19493;48.042;7.584;2023-07-08T05:24:59;18.00;99.90
26505;DHT22;19493;48.042;7.584;2023-07-08T05:27:24;17.90;99.90
26505;DHT22;19493;48.042;7.584;2023-07-08T05:29:50;17.90;99.90
26505;DHT22;19493;48.042;7.584;2023-07-08T05:32:17;17.90;99.90
26505;DHT22;19493;48.042;7.584;2023-07-08T05:34:43;17.80;99.90
26505;DHT22;19493;48.042;7.584;2023-07-08T05:37:10;17.80;99.90
26505;DHT22;19493;48.042;7.584;2023-07-08T05:39:36;17.80;99.90
26505;DHT22;19493;48.042;7.584;2023-07-08T05:42:02;17.70;99.90
26505;DHT22;19493;48.042;7.584;2023-07-08T05:44:27;17.70;99.90
26505;DHT22;19493;48.042;7.584;2023-07-08T05:46:53;17.70;99.90
26505;DHT22;19493;48.042;7.584;2023-07-08T05:49:18;17.70;99.90
26505;DHT22;19493;48.042;7.584;2023-07-08T05:51:44;17.70;99.90
26505;DHT22;19493;48.042;7.584;2023-07-08T05:54:10;17.70;99.90
26505;DHT22;19493;48.042;7.584;2023-07-08T05:56:36;17.60;99.90
26505;DHT22;19493;48.042;7.584;2023-07-08T05:59:02;17.70;99.90
26505;DHT22;19493;48.042;7.584;2023-07-08T06:01:29;17.70;99.90
26505;DHT22;19493;48.042;7.584;2023-07-08T06:03:55;17.70;99.90
26505;DHT22;19493;48.042;7.584;2023-07-08T06:06:24;17.60;99.90
26505;DHT22;19493;48.042;7.584;2023-07-08T06:08:49;17.70;99.90
26505;DHT22;19493;48.042;7.584;2023-07-08T06:11:15;17.70;99.90
26505;DHT22;19493;48.042;7.584;2023-07-08T06:13:41;17.80;99.90
26505;DHT22;19493;48.042;7.584;2023-07-08T06:16:06;17.80;99.90
26505;DHT22;19493;48.042;7.584;2023-07-08T06:18:32;17.90;99.90
26505;DHT22;19493;48.042;7.584;2023-07-08T06:20:58;17.90;99.90
26505;DHT22;19493;48.042;7.584;2023-07-08T06:23:24;18.00;99.90
26505;DHT22;19493;48.042;7.584;2023-07-08T06:25:50;18.00;99.90
26505;DHT22;19493;48.042;7.584;2023-07-08T06:28:16;18.20;99.90
26505;DHT22;19493;48.042;7.584;2023-07-08T06:30:42;18.20;99.90
26505;DHT22;19493;48.042;7.584;2023-07-08T06:33:08;18.30;99.90
26505;DHT22;19493;48.042;7.584;2023-07-08T06:35:33;18.30;99.90
26505;DHT22;19493;48.042;7.584;2023-07-08T06:37:59;18.50;99.90
26505;DHT22;19493;48.042;7.584;2023-07-08T06:40:24;18.70;99.90
26505;DHT22;19493;48.042;7.584;2023-07-08T06:42:50;18.80;99.90
26505;DHT22;19493;48.042;7.584;2023-07-08T06:45:15;18.90;99.90
26505;DHT22;19493;48.042;7.584;2023-07-08T06:47:41;19.00;99.90
26505;DHT22;19493;48.042;7.584;2023-07-08T06:50:07;19.10;99.90
26505;DHT22;19493;48.042;7.584;2023-07-08T06:52:33;19.20;99.90
26505;DHT22;19493;48.042;7.584;2023-07-08T06:55:05;19.30;99.90
26505;DHT22;19493;48.042;7.584;2023-07-08T06:57:31;19.50;99.90
26505;DHT22;19493;48.042;7.584;2023-07-08T06:59:57;19.70;99.90
26505;DHT22;19493;48.042;7.584;2023-07-08T07:02:23;19.80;99.90
26505;DHT22;19493;48.042;7.584;2023-07-08T07:04:49;20.00;99.90
26505;DHT22;19493;48.042;7.584;2023-07-08T07:07:15;20.10;99.90
26505;DHT22;19493;48.042;7.584;2023-07-08T07:09:40;20.10;99.90
26505;DHT22;19493;48.042;7.584;2023-07-08T07:12:06;20.30;99.90
26505;DHT22;19493;48.042;7.584;2023-07-08T07:14:32;20.40;99.90
26505;DHT22;19493;48.042;7.584;2023-07-08T07:16:58;20.40;99.90
26505;DHT22;19493;48.042;7.584;2023-07-08T07:19:24;20.50;99.90
26505;DHT22;19493;48.042;7.584;2023-07-08T07:21:49;20.60;99.90
26505;DHT22;19493;48.042;7.584;2023-07-08T07:24:15;20.70;99.90
26505;DHT22;19493;48.042;7.584;2023-07-08T07:26:41;20.80;99.90
26505;DHT22;19493;48.042;7.584;2023-07-08T07:29:06;20.90;99.90
26505;DHT22;19493;48.042;7.584;2023-07-08T07:31:32;21.00;99.90
26505;DHT22;19493;48.042;7.584;2023-07-08T07:34:00;21.10;99.90
26505;DHT22;19493;48.042;7.584;2023-07-08T07:36:27;21.20;99.90
26505;DHT22;19493;48.042;7.584;2023-07-08T07:38:54;21.50;99.90
26505;DHT22;19493;48.042;7.584;2023-07-08T07:41:19;21.80;99.90
26505;DHT22;19493;48.042;7.584;2023-07-08T07:43:45;22.20;99.90
26505;DHT22;19493;48.042;7.584;2023-07-08T07:46:11;22.50;99.90
26505;DHT22;19493;48.042;7.584;2023-07-08T07:48:37;22.90;99.90
26505;DHT22;19493;48.042;7.584;2023-07-08T07:51:03;23.00;99.90
26505;DHT22;19493;48.042;7.584;2023-07-08T07:53:29;23.20;99.90
26505;DHT22;19493;48.042;7.584;2023-07-08T07:55:59;23.10;99.90
26505;DHT22;19493;48.042;7.584;2023-07-08T07:58:24;23.10;99.90
26505;DHT22;19493;48.042;7.584;2023-07-08T08:00:50;22.90;99.90
26505;DHT22;19493;48.042;7.584;2023-07-08T08:03:16;22.90;99.90
26505;DHT22;19493;48.042;7.584;2023-07-08T08:05:43;22.80;99.90
26505;DHT22;19493;48.042;7.584;2023-07-08T08:08:09;22.90;99.90
26505;DHT22;19493;48.042;7.584;2023-07-08T08:10:35;22.90;99.90
26505;DHT22;19493;48.042;7.584;2023-07-08T08:13:01;23.20;99.90
26505;DHT22;19493;48.042;7.584;2023-07-08T08:15:27;23.70;99.90
26505;DHT22;19493;48.042;7.584;2023-07-08T08:17:53;23.90;99.90
26505;DHT22;19493;48.042;7.584;2023-07-08T08:20:20;24.20;99.90
26505;DHT22;19493;48.042;7.584;2023-07-08T08:22:46;24.20;99.90
26505;DHT22;19493;48.042;7.584;2023-07-08T08:25:18;24.00;99.90
26505;DHT22;19493;48.042;7.584;2023-07-08T08:27:44;24.00;99.90
26505;DHT22;19493;48.042;7.584;2023-07-08T08:30:10;24.10;99.90
26505;DHT22;19493;48.042;7.584;2023-07-08T08:32:36;24.10;99.90
26505;DHT22;19493;48.042;7.584;2023-07-08T08:35:02;24.20;99.90
26505;DHT22;19493;48.042;7.584;2023-07-08T08:37:28;24.40;99.90
26505;DHT22;19493;48.042;7.584;2023-07-08T08:39:54;24.40;99.90
26505;DHT22;19493;48.042;7.584;2023-07-08T08:44:56;24.30;99.90
26505;DHT22;19493;48.042;7.584;2023-07-08T08:47:41;24.10;99.90
26505;DHT22;19493;48.042;7.584;2023-07-08T08:50:28;24.20;99.90
26505;DHT22;19493;48.042;7.584;2023-07-08T08:52:55;24.30;99.90
26505;DHT22;19493;48.042;7.584;2023-07-08T08:55:23;24.40;99.90
26505;DHT22;19493;48.042;7.584;2023-07-08T08:58:13;24.40;99.90
26505;DHT22;19493;48.042;7.584;2023-07-08T09:00:55;24.50;99.90
26505;DHT22;19493;48.042;7.584;2023-07-08T09:06:10;25.00;99.90
26505;DHT22;19493;48.042;7.584;2023-07-08T09:08:37;25.40;99.90
26505;DHT22;19493;48.042;7.584;2023-07-08T09:13:55;26.50;99.90
26505;DHT22;19493;48.042;7.584;2023-07-08T09:19:23;28.30;99.90
26505;DHT22;19493;48.042;7.584;2023-07-08T09:21:51;28.50;99.90
26505;DHT22;19493;48.042;7.584;2023-07-08T09:24:29;28.50;99.90
26505;DHT22;19493;48.042;7.584;2023-07-08T09:26:58;29.10;99.90
26505;DHT22;19493;48.042;7.584;2023-07-08T09:29:26;30.40;99.90
26505;DHT22;19493;48.042;7.584;2023-07-08T09:31:52;31.10;99.90
26505;DHT22;19493;48.042;7.584;2023-07-08T09:34:22;32.20;99.90
26505;DHT22;19493;48.042;7.584;2023-07-08T09:36:49;31.50;99.90
26505;DHT22;19493;48.042;7.584;2023-07-08T09:39:20;30.80;99.90
26505;DHT22;19493;48.042;7.584;2023-07-08T09:41:48;30.20;99.90
26505;DHT22;19493;48.042;7.584;2023-07-08T09:46:43;29.30;99.90
26505;DHT22;19493;48.042;7.584;2023-07-08T09:49:24;29.40;99.90
26505;DHT22;19493;48.042;7.584;2023-07-08T09:51:52;29.50;99.90
26505;DHT22;19493;48.042;7.584;2023-07-08T09:54:23;29.60;99.90
26505;DHT22;19493;48.042;7.584;2023-07-08T09:57:14;29.90;99.90
26505;DHT22;19493;48.042;7.584;2023-07-08T09:59:47;30.40;99.60
26505;DHT22;19493;48.042;7.584;2023-07-08T10:02:26;30.70;97.10
26505;DHT22;19493;48.042;7.584;2023-07-08T10:04:54;31.00;95.20
26505;DHT22;19493;48.042;7.584;2023-07-08T10:07:20;30.80;95.20
26505;DHT22;19493;48.042;7.584;2023-07-08T10:09:52;31.00;95.00
26505;DHT22;19493;48.042;7.584;2023-07-08T10:12:20;31.50;93.60
26505;DHT22;19493;48.042;7.584;2023-07-08T10:14:51;31.20;91.80
26505;DHT22;19493;48.042;7.584;2023-07-08T10:17:19;30.60;93.30
26505;DHT22;19493;48.042;7.584;2023-07-08T10:19:45;30.70;93.20
26505;DHT22;19493;48.042;7.584;2023-07-08T10:27:47;30.30;91.40
26505;DHT22;19493;48.042;7.584;2023-07-08T10:30:43;29.80;91.70
26505;DHT22;19493;48.042;7.584;2023-07-08T10:33:17;29.50;93.00
26505;DHT22;19493;48.042;7.584;2023-07-08T10:41:47;31.30;91.30
26505;DHT22;19493;48.042;7.584;2023-07-08T10:44:25;32.80;85.40
26505;DHT22;19493;48.042;7.584;2023-07-08T10:50:16;33.40;81.70
26505;DHT22;19493;48.042;7.584;2023-07-08T10:53:16;34.00;79.80
26505;DHT22;19493;48.042;7.584;2023-07-08T10:55:57;34.00;78.50
26505;DHT22;19493;48.042;7.584;2023-07-08T11:06:35;34.70;71.00
26505;DHT22;19493;48.042;7.584;2023-07-08T11:09:07;35.80;69.70
26505;DHT22;19493;48.042;7.584;2023-07-08T11:11:43;36.90;66.60
26505;DHT22;19493;48.042;7.584;2023-07-08T11:14:22;37.60;63.60
26505;DHT22;19493;48.042;7.584;2023-07-08T11:19:34;37.20;59.40
26505;DHT22;19493;48.042;7.584;2023-07-08T11:22:07;36.20;60.70
26505;DHT22;19493;48.042;7.584;2023-07-08T11:24:43;35.80;61.60
26505;DHT22;19493;48.042;7.584;2023-07-08T11:27:25;36.10;63.60
26505;DHT22;19493;48.042;7.584;2023-07-08T11:29:59;36.50;60.90
26505;DHT22;19493;48.042;7.584;2023-07-08T11:32:29;36.70;60.00
26505;DHT22;19493;48.042;7.584;2023-07-08T11:34:57;37.20;59.80
26505;DHT22;19493;48.042;7.584;2023-07-08T11:37:24;37.50;57.80
26505;DHT22;19493;48.042;7.584;2023-07-08T11:40:20;37.30;56.10
26505;DHT22;19493;48.042;7.584;2023-07-08T11:43:00;36.90;57.60
26505;DHT22;19493;48.042;7.584;2023-07-08T11:50:39;37.30;57.90
26505;DHT22;19493;48.042;7.584;2023-07-08T11:53:11;36.40;58.30
26505;DHT22;19493;48.042;7.584;2023-07-08T11:55:55;35.70;60.50
26505;DHT22;19493;48.042;7.584;2023-07-08T11:58:25;36.10;60.00
26505;DHT22;19493;48.042;7.584;2023-07-08T12:04:16;37.50;58.20
26505;DHT22;19493;48.042;7.584;2023-07-08T12:06:46;38.50;56.10
26505;DHT22;19493;48.042;7.584;2023-07-08T12:09:49;38.10;55.80
26505;DHT22;19493;48.042;7.584;2023-07-08T12:12:22;37.50;57.10
26505;DHT22;19493;48.042;7.584;2023-07-08T12:14:50;37.60;57.00
26505;DHT22;19493;48.042;7.584;2023-07-08T12:17:15;37.90;56.40
26505;DHT22;19493;48.042;7.584;2023-07-08T12:19:43;38.10;56.40
26505;DHT22;19493;48.042;7.584;2023-07-08T12:22:10;38.80;55.60
26505;DHT22;19493;48.042;7.584;2023-07-08T12:24:38;39.10;55.10
26505;DHT22;19493;48.042;7.584;2023-07-08T12:27:03;38.90;54.10
26505;DHT22;19493;48.042;7.584;2023-07-08T12:29:29;39.30;55.00
26505;DHT22;19493;48.042;7.584;2023-07-08T12:31:55;39.90;52.30
26505;DHT22;19493;48.042;7.584;2023-07-08T12:34:23;39.90;50.90
26505;DHT22;19493;48.042;7.584;2023-07-08T12:36:50;39.70;49.70
26505;DHT22;19493;48.042;7.584;2023-07-08T12:39:16;39.80;51.20
26505;DHT22;19493;48.042;7.584;2023-07-08T12:41:44;40.30;51.20
26505;DHT22;19493;48.042;7.584;2023-07-08T12:44:18;39.80;50.00
26505;DHT22;19493;48.042;7.584;2023-07-08T12:46:46;39.50;51.10
26505;DHT22;19493;48.042;7.584;2023-07-08T12:49:13;39.00;50.20
26505;DHT22;19493;48.042;7.584;2023-07-08T12:51:42;38.90;51.30
26505;DHT22;19493;48.042;7.584;2023-07-08T12:54:09;38.80;49.70
26505;DHT22;19493;48.042;7.584;2023-07-08T12:56:36;38.90;50.10
26505;DHT22;19493;48.042;7.584;2023-07-08T12:59:04;39.10;49.70
26505;DHT22;19493;48.042;7.584;2023-07-08T13:01:32;39.40;50.10
26505;DHT22;19493;48.042;7.584;2023-07-08T13:04:05;39.30;49.80
26505;DHT22;19493;48.042;7.584;2023-07-08T13:06:33;39.70;50.20
26505;DHT22;19493;48.042;7.584;2023-07-08T13:09:44;39.90;47.20
26505;DHT22;19493;48.042;7.584;2023-07-08T13:11:50;39.30;47.00
26505;DHT22;19493;48.042;7.584;2023-07-08T13:14:18;38.70;47.60
26505;DHT22;19493;48.042;7.584;2023-07-08T13:16:44;38.90;48.60
26505;DHT22;19493;48.042;7.584;2023-07-08T13:19:12;39.00;48.10
26505;DHT22;19493;48.042;7.584;2023-07-08T13:21:38;38.50;47.80
26505;DHT22;19493;48.042;7.584;2023-07-08T13:24:11;38.70;47.90
26505;DHT22;19493;48.042;7.584;2023-07-08T13:26:36;38.90;47.30
26505;DHT22;19493;48.042;7.584;2023-07-08T13:29:12;39.60;47.40
26505;DHT22;19493;48.042;7.584;2023-07-08T13:31:39;39.50;46.30
26505;DHT22;19493;48.042;7.584;2023-07-08T13:34:08;39.80;47.90
26505;DHT22;19493;48.042;7.584;2023-07-08T13:36:36;40.30;46.70
26505;DHT22;19493;48.042;7.584;2023-07-08T13:39:06;40.60;47.00
26505;DHT22;19493;48.042;7.584;2023-07-08T13:41:31;41.00;46.10
26505;DHT22;19493;48.042;7.584;2023-07-08T13:44:04;41.30;45.00
26505;DHT22;19493;48.042;7.584;2023-07-08T13:46:37;41.20;44.50
26505;DHT22;19493;48.042;7.584;2023-07-08T13:49:54;41.60;43.80
26505;DHT22;19493;48.042;7.584;2023-07-08T13:54:49;41.00;43.00
26505;DHT22;19493;48.042;7.584;2023-07-08T13:57:18;41.40;42.10
26505;DHT22;19493;48.042;7.584;2023-07-08T13:59:44;41.40;42.80
26505;DHT22;19493;48.042;7.584;2023-07-08T14:02:21;41.30;43.60
26505;DHT22;19493;48.042;7.584;2023-07-08T14:04:49;41.30;44.50
26505;DHT22;19493;48.042;7.584;2023-07-08T14:07:21;41.40;42.30
26505;DHT22;19493;48.042;7.584;2023-07-08T14:09:47;41.40;42.70
26505;DHT22;19493;48.042;7.584;2023-07-08T14:12:13;41.30;40.40
26505;DHT22;19493;48.042;7.584;2023-07-08T14:14:39;41.70;41.00
26505;DHT22;19493;48.042;7.584;2023-07-08T14:17:05;41.60;41.00
26505;DHT22;19493;48.042;7.584;2023-07-08T14:19:34;41.60;39.60
26505;DHT22;19493;48.042;7.584;2023-07-08T14:22:24;41.70;35.50
26505;DHT22;19493;48.042;7.584;2023-07-08T14:24:47;42.00;34.90
26505;DHT22;19493;48.042;7.584;2023-07-08T14:27:12;42.10;34.60
26505;DHT22;19493;48.042;7.584;2023-07-08T14:29:42;42.40;33.60
26505;DHT22;19493;48.042;7.584;2023-07-08T14:32:12;42.30;35.20
26505;DHT22;19493;48.042;7.584;2023-07-08T14:34:38;42.30;34.10
26505;DHT22;19493;48.042;7.584;2023-07-08T14:37:15;42.30;35.00
26505;DHT22;19493;48.042;7.584;2023-07-08T14:39:43;42.70;32.70
26505;DHT22;19493;48.042;7.584;2023-07-08T14:42:11;42.40;32.80
26505;DHT22;19493;48.042;7.584;2023-07-08T14:44:38;41.90;32.60
26505;DHT22;19493;48.042;7.584;2023-07-08T14:47:12;41.90;32.50
26505;DHT22;19493;48.042;7.584;2023-07-08T14:49:39;42.00;32.10
26505;DHT22;19493;48.042;7.584;2023-07-08T14:52:05;42.50;31.50
26505;DHT22;19493;48.042;7.584;2023-07-08T14:54:31;42.60;31.00
26505;DHT22;19493;48.042;7.584;2023-07-08T14:56:57;42.80;30.60
26505;DHT22;19493;48.042;7.584;2023-07-08T14:59:25;42.90;30.30
26505;DHT22;19493;48.042;7.584;2023-07-08T15:01:55;42.50;31.00
26505;DHT22;19493;48.042;7.584;2023-07-08T15:04:21;42.30;31.90
26505;DHT22;19493;48.042;7.584;2023-07-08T15:06:47;42.20;31.50
26505;DHT22;19493;48.042;7.584;2023-07-08T15:09:14;42.00;32.50
26505;DHT22;19493;48.042;7.584;2023-07-08T15:11:42;42.00;32.30
26505;DHT22;19493;48.042;7.584;2023-07-08T15:14:22;42.00;31.40
26505;DHT22;19493;48.042;7.584;2023-07-08T15:16:49;41.70;32.00
26505;DHT22;19493;48.042;7.584;2023-07-08T15:19:16;41.00;32.50
26505;DHT22;19493;48.042;7.584;2023-07-08T15:21:42;40.50;33.10
26505;DHT22;19493;48.042;7.584;2023-07-08T15:24:10;40.70;33.70
26505;DHT22;19493;48.042;7.584;2023-07-08T15:26:40;40.80;32.90
26505;DHT22;19493;48.042;7.584;2023-07-08T15:29:14;40.80;33.40
26505;DHT22;19493;48.042;7.584;2023-07-08T15:31:40;40.90;33.20
26505;DHT22;19493;48.042;7.584;2023-07-08T15:34:13;41.00;32.90
26505;DHT22;19493;48.042;7.584;2023-07-08T15:36:40;40.90;32.30
26505;DHT22;19493;48.042;7.584;2023-07-08T15:39:05;40.80;33.60
26505;DHT22;19493;48.042;7.584;2023-07-08T15:41:31;41.10;32.70
26505;DHT22;19493;48.042;7.584;2023-07-08T15:43:58;40.90;32.60
26505;DHT22;19493;48.042;7.584;2023-07-08T15:46:32;41.20;33.30
26505;DHT22;19493;48.042;7.584;2023-07-08T15:48:59;41.70;32.80
26505;DHT22;19493;48.042;7.584;2023-07-08T15:51:24;41.40;32.30
26505;DHT22;19493;48.042;7.584;2023-07-08T15:53:50;41.20;33.20
26505;DHT22;19493;48.042;7.584;2023-07-08T15:56:19;41.00;33.30
26505;DHT22;19493;48.042;7.584;2023-07-08T15:58:45;40.90;33.50
26505;DHT22;19493;48.042;7.584;2023-07-08T16:01:22;41.40;33.50
26505;DHT22;19493;48.042;7.584;2023-07-08T16:03:49;41.50;32.60
26505;DHT22;19493;48.042;7.584;2023-07-08T16:06:15;40.80;33.20
26505;DHT22;19493;48.042;7.584;2023-07-08T16:08:43;40.30;34.30
26505;DHT22;19493;48.042;7.584;2023-07-08T16:11:13;39.90;34.20
26505;DHT22;19493;48.042;7.584;2023-07-08T16:13:40;39.30;35.70
26505;DHT22;19493;48.042;7.584;2023-07-08T16:16:06;39.20;35.60
26505;DHT22;19493;48.042;7.584;2023-07-08T16:18:32;39.00;35.80
26505;DHT22;19493;48.042;7.584;2023-07-08T16:20:58;38.90;36.30
26505;DHT22;19493;48.042;7.584;2023-07-08T16:23:23;38.80;36.60
26505;DHT22;19493;48.042;7.584;2023-07-08T16:25:51;39.00;36.40
26505;DHT22;19493;48.042;7.584;2023-07-08T16:28:28;38.70;35.70
26505;DHT22;19493;48.042;7.584;2023-07-08T16:30:56;38.60;36.50
26505;DHT22;19493;48.042;7.584;2023-07-08T16:33:22;38.60;36.00
26505;DHT22;19493;48.042;7.584;2023-07-08T16:35:47;38.50;36.20
26505;DHT22;19493;48.042;7.584;2023-07-08T16:38:13;38.50;36.40